sensor_id;sensor_type;location;lat;lon;timestamp;pressure;altitude;pressure_sealevel;temperature;humidity
39295;BME280;52361;52.100;5.248;2023-03-03T00:00:55;102439.00000000001;;;3.4;100.0
39295;BME280;52361;52.100;5.248;2023-03-03T00:02:31;102442.0;;;3.32;100.0
39295;BME280;52361;52.100;5.248;2023-03-03T00:04:07;102446.0;;;3.28;100.0
39295;BME280;52361;52.100;5.248;2023-03-03T00:07:19;102443.0;;;3.35;100.0
39295;BME280;52361;52.100;5.248;2023-03-03T00:08:56;102448.0;;;3.37;100.0
39295;BME280;52361;52.100;5.248;2023-03-03T00:10:32;102445.0;;;3.39;100.0
39295;BME280;52361;52.100;5.248;2023-03-03T00:12:20;102442.0;;;3.2;100.0
39295;BME280;52361;52.100;5.248;2023-03-03T00:15:35;102443.0;;;3.11;100.0
39295;BME280;52361;52.100;5.248;2023-03-03T00:17:15;102438.00000000001;;;3.3;100.0
39295;BME280;52361;52.100;5.248;2023-03-03T00:18:56;102444.0;;;3.18;100.0
39295;BME280;52361;52.100;5.248;2023-03-03T00:20:35;102439.00000000001;;;3.15;100.0
39295;BME280;52361;52.100;5.248;2023-03-03T00:24:16;102443.0;;;3.06;100.0
39295;BME280;52361;52.100;5.248;2023-03-03T00:25:54;102441.00000000001;;;3.2;100.0
39295;BME280;52361;52.100;5.248;2023-03-03T00:27:34;102448.0;;;3.11;100.0
39295;BME280;52361;52.100;5.248;2023-03-03T00:29:30;102441.00000000001;;;3.14;100.0
39295;BME280;52361;52.100;5.248;2023-03-03T00:31:14;102446.0;;;3.02;100.0
39295;BME280;52361;52.100;5.248;2023-03-03T00:34:28;102447.0;;;2.97;100.0
39295;BME280;52361;52.100;5.248;2023-03-03T00:36:21;102445.0;;;3.18;100.0
39295;BME280;52361;52.100;5.248;2023-03-03T00:38:13;102455.0;;;3.1;100.0
39295;BME280;52361;52.100;5.248;2023-03-03T00:39:52;102458.99999999999;;;3.09;100.0
39295;BME280;52361;52.100;5.248;2023-03-03T00:41:29;102457.0;;;3.12;100.0
39295;BME280;52361;52.100;5.248;2023-03-03T00:44:55;102461.99999999999;;;3.04;100.0
39295;BME280;52361;52.100;5.248;2023-03-03T00:46:35;102457.0;;;3.03;100.0
39295;BME280;52361;52.100;5.248;2023-03-03T00:48:20;102453.0;;;3.11;100.0
39295;BME280;52361;52.100;5.248;2023-03-03T00:50:18;102458.99999999999;;;3.0;100.0
39295;BME280;52361;52.100;5.248;2023-03-03T00:52:00;102458.99999999999;;;2.97;100.0
39295;BME280;52361;52.100;5.248;2023-03-03T00:55:12;102454.0;;;2.9;100.0
39295;BME280;52361;52.100;5.248;2023-03-03T00:56:48;102457.0;;;3.02;100.0
39295;BME280;52361;52.100;5.248;2023-03-03T00:58:25;102466.00000000001;;;2.93;100.0
39295;BME280;52361;52.100;5.248;2023-03-03T01:01:39;102467.0;;;2.91;100.0
39295;BME280;52361;52.100;5.248;2023-03-03T01:03:18;102474.0;;;3.05;100.0
39295;BME280;52361;52.100;5.248;2023-03-03T01:04:55;102469.0;;;3.08;100.0
39295;BME280;52361;52.100;5.248;2023-03-03T01:06:31;102466.00000000001;;;2.95;100.0
39295;BME280;52361;52.100;5.248;2023-03-03T01:09:44;102469.0;;;3.12;100.0
39295;BME280;52361;52.100;5.248;2023-03-03T01:11:22;102471.0;;;2.82;100.0
39295;BME280;52361;52.100;5.248;2023-03-03T01:13:01;102473.0;;;2.91;100.0
39295;BME280;52361;52.100;5.248;2023-03-03T01:16:15;102475.0;;;2.87;100.0
39295;BME280;52361;52.100;5.248;2023-03-03T01:17:53;102473.0;;;2.88;100.0
39295;BME280;52361;52.100;5.248;2023-03-03T01:19:29;102468.0;;;3.06;100.0
39295;BME280;52361;52.100;5.248;2023-03-03T01:21:05;102468.0;;;3.11;100.0
39295;BME280;52361;52.100;5.248;2023-03-03T01:24:18;102468.0;;;3.16;100.0
39295;BME280;52361;52.100;5.248;2023-03-03T01:25:56;102467.0;;;3.02;100.0
39295;BME280;52361;52.100;5.248;2023-03-03T01:27:33;102468.0;;;3.01;100.0
39295;BME280;52361;52.100;5.248;2023-03-03T01:30:46;102469.0;;;3.18;100.0
39295;BME280;52361;52.100;5.248;2023-03-03T01:32:22;102472.0;;;3.1;100.0
39295;BME280;52361;52.100;5.248;2023-03-03T01:33:59;102476.0;;;2.78;100.0
39295;BME280;52361;52.100;5.248;2023-03-03T01:37:11;102476.0;;;2.57;100.0
39295;BME280;52361;52.100;5.248;2023-03-03T01:38:47;102476.0;;;2.72;100.0
39295;BME280;52361;52.100;5.248;2023-03-03T01:40:26;102475.0;;;2.4;100.0
39295;BME280;52361;52.100;5.248;2023-03-03T01:42:05;102479.0;;;2.4;100.0
39295;BME280;52361;52.100;5.248;2023-03-03T01:45:22;102478.0;;;2.34;100.0
39295;BME280;52361;52.100;5.248;2023-03-03T01:47:03;102478.0;;;2.34;100.0
39295;BME280;52361;52.100;5.248;2023-03-03T01:48:43;102481.0;;;2.29;100.0
39295;BME280;52361;52.100;5.248;2023-03-03T01:52:12;102478.0;;;2.34;100.0
39295;BME280;52361;52.100;5.248;2023-03-03T01:53:53;102478.0;;;2.29;100.0
39295;BME280;52361;52.100;5.248;2023-03-03T01:55:34;102475.0;;;2.4;100.0
39295;BME280;52361;52.100;5.248;2023-03-03T01:57:15;102472.0;;;2.59;100.0
39295;BME280;52361;52.100;5.248;2023-03-03T01:58:58;102476.0;;;2.66;100.0
39295;BME280;52361;52.100;5.248;2023-03-03T02:02:15;102480.0;;;2.72;100.0
39295;BME280;52361;52.100;5.248;2023-03-03T02:03:52;102481.0;;;2.79;100.0
39295;BME280;52361;52.100;5.248;2023-03-03T02:05:28;102483.0;;;2.89;100.0
39295;BME280;52361;52.100;5.248;2023-03-03T02:08:50;102484.99999999999;;;2.81;100.0
39295;BME280;52361;52.100;5.248;2023-03-03T02:10:29;102483.0;;;2.78;100.0
39295;BME280;52361;52.100;5.248;2023-03-03T02:12:08;102477.0;;;2.84;100.0
39295;BME280;52361;52.100;5.248;2023-03-03T02:13:47;102483.0;;;2.66;100.0
39295;BME280;52361;52.100;5.248;2023-03-03T02:17:02;102484.99999999999;;;2.62;100.0
39295;BME280;52361;52.100;5.248;2023-03-03T02:18:38;102479.0;;;2.39;100.0
39295;BME280;52361;52.100;5.248;2023-03-03T02:20:20;102480.0;;;2.44;100.0
39295;BME280;52361;52.100;5.248;2023-03-03T02:22:01;102483.0;;;2.54;100.0
39295;BME280;52361;52.100;5.248;2023-03-03T02:25:30;102483.0;;;2.56;100.0
39295;BME280;52361;52.100;5.248;2023-03-03T02:28:45;102473.0;;;2.52;100.0
39295;BME280;52361;52.100;5.248;2023-03-03T02:30:24;102476.0;;;2.5;100.0
39295;BME280;52361;52.100;5.248;2023-03-03T02:35:32;102475.0;;;2.65;100.0
39295;BME280;52361;52.100;5.248;2023-03-03T02:37:09;102480.0;;;2.76;100.0
39295;BME280;52361;52.100;5.248;2023-03-03T02:38:50;102474.0;;;2.81;100.0
39295;BME280;52361;52.100;5.248;2023-03-03T02:42:15;102476.0;;;2.78;100.0
39295;BME280;52361;52.100;5.248;2023-03-03T02:43:58;102471.0;;;2.69;100.0
39295;BME280;52361;52.100;5.248;2023-03-03T02:45:41;102478.0;;;2.82;100.0
39295;BME280;52361;52.100;5.248;2023-03-03T02:47:17;102477.0;;;2.74;100.0
39295;BME280;52361;52.100;5.248;2023-03-03T02:50:30;102475.0;;;2.91;100.0
39295;BME280;52361;52.100;5.248;2023-03-03T02:52:08;102476.0;;;2.85;100.0
39295;BME280;52361;52.100;5.248;2023-03-03T02:53:45;102474.0;;;3.06;100.0
39295;BME280;52361;52.100;5.248;2023-03-03T02:55:22;102477.0;;;2.87;100.0
39295;BME280;52361;52.100;5.248;2023-03-03T02:58:36;102478.0;;;2.8;100.0
39295;BME280;52361;52.100;5.248;2023-03-03T03:00:13;102478.0;;;2.65;100.0
39295;BME280;52361;52.100;5.248;2023-03-03T03:01:50;102483.0;;;2.94;100.0
39295;BME280;52361;52.100;5.248;2023-03-03T03:05:03;102479.0;;;3.08;100.0
39295;BME280;52361;52.100;5.248;2023-03-03T03:06:40;102480.0;;;3.16;100.0
39295;BME280;52361;52.100;5.248;2023-03-03T03:08:17;102479.0;;;2.94;100.0
39295;BME280;52361;52.100;5.248;2023-03-03T03:09:53;102478.0;;;3.12;100.0
39295;BME280;52361;52.100;5.248;2023-03-03T03:13:06;102479.0;;;3.01;100.0
39295;BME280;52361;52.100;5.248;2023-03-03T03:14:42;102481.0;;;3.11;100.0
39295;BME280;52361;52.100;5.248;2023-03-03T03:16:18;102482.0;;;2.91;100.0
39295;BME280;52361;52.100;5.248;2023-03-03T03:19:30;102481.0;;;2.85;100.0
39295;BME280;52361;52.100;5.248;2023-03-03T03:21:08;102483.0;;;2.81;100.0
39295;BME280;52361;52.100;5.248;2023-03-03T03:25:58;102479.0;;;2.77;100.0
39295;BME280;52361;52.100;5.248;2023-03-03T03:27:34;102478.0;;;2.78;100.0
39295;BME280;52361;52.100;5.248;2023-03-03T03:29:10;102481.0;;;2.81;100.0
39295;BME280;52361;52.100;5.248;2023-03-03T03:32:22;102481.0;;;2.86;100.0
39295;BME280;52361;52.100;5.248;2023-03-03T03:33:57;102482.0;;;2.83;100.0
39295;BME280;52361;52.100;5.248;2023-03-03T03:35:34;102478.0;;;2.86;100.0
39295;BME280;52361;52.100;5.248;2023-03-03T03:37:11;102474.0;;;2.96;100.0
39295;BME280;52361;52.100;5.248;2023-03-03T03:40:23;102484.99999999999;;;2.83;100.0
39295;BME280;52361;52.100;5.248;2023-03-03T03:41:59;102484.99999999999;;;2.98;100.0
39295;BME280;52361;52.100;5.248;2023-03-03T03:43:35;102479.0;;;3.01;100.0
39295;BME280;52361;52.100;5.248;2023-03-03T03:46:48;102478.0;;;2.94;100.0
39295;BME280;52361;52.100;5.248;2023-03-03T03:48:26;102488.00000000001;;;2.69;100.0
39295;BME280;52361;52.100;5.248;2023-03-03T03:50:02;102483.99999999999;;;2.83;100.0
39295;BME280;52361;52.100;5.248;2023-03-03T03:53:14;102483.0;;;2.81;100.0
39295;BME280;52361;52.100;5.248;2023-03-03T03:54:51;102489.00000000001;;;2.94;100.0
39295;BME280;52361;52.100;5.248;2023-03-03T03:56:27;102484.99999999999;;;2.95;100.0
39295;BME280;52361;52.100;5.248;2023-03-03T03:58:03;102496.0;;;2.93;100.0
39295;BME280;52361;52.100;5.248;2023-03-03T04:01:16;102492.0;;;3.06;100.0
39295;BME280;52361;52.100;5.248;2023-03-03T04:02:53;102492.0;;;3.01;100.0
39295;BME280;52361;52.100;5.248;2023-03-03T04:04:29;102496.0;;;3.01;100.0
39295;BME280;52361;52.100;5.248;2023-03-03T04:07:41;102495.0;;;2.95;100.0
39295;BME280;52361;52.100;5.248;2023-03-03T04:09:17;102499.0;;;2.89;100.0
39295;BME280;52361;52.100;5.248;2023-03-03T04:10:54;102492.0;;;3.01;100.0
39295;BME280;52361;52.100;5.248;2023-03-03T04:14:07;102495.0;;;2.88;100.0
39295;BME280;52361;52.100;5.248;2023-03-03T04:15:43;102496.0;;;2.78;100.0
39295;BME280;52361;52.100;5.248;2023-03-03T04:17:21;102492.0;;;2.99;100.0
39295;BME280;52361;52.100;5.248;2023-03-03T04:18:57;102497.0;;;2.96;100.0
39295;BME280;52361;52.100;5.248;2023-03-03T04:22:09;102492.0;;;2.9;100.0
39295;BME280;52361;52.100;5.248;2023-03-03T04:23:45;102495.0;;;2.88;100.0
39295;BME280;52361;52.100;5.248;2023-03-03T04:25:22;102494.0;;;2.94;100.0
39295;BME280;52361;52.100;5.248;2023-03-03T04:28:35;102492.0;;;2.79;100.0
39295;BME280;52361;52.100;5.248;2023-03-03T04:30:12;102497.0;;;2.94;100.0
39295;BME280;52361;52.100;5.248;2023-03-03T04:31:50;102493.0;;;2.75;100.0
39295;BME280;52361;52.100;5.248;2023-03-03T04:35:03;102495.0;;;3.03;100.0
39295;BME280;52361;52.100;5.248;2023-03-03T04:36:41;102500.0;;;3.13;100.0
39295;BME280;52361;52.100;5.248;2023-03-03T04:38:17;102500.0;;;3.27;100.0
39295;BME280;52361;52.100;5.248;2023-03-03T04:39:53;102499.0;;;3.25;100.0
39295;BME280;52361;52.100;5.248;2023-03-03T04:43:05;102504.0;;;3.26;100.0
39295;BME280;52361;52.100;5.248;2023-03-03T04:44:41;102503.0;;;3.29;100.0
39295;BME280;52361;52.100;5.248;2023-03-03T04:49:31;102500.0;;;3.29;100.0
39295;BME280;52361;52.100;5.248;2023-03-03T04:51:07;102503.0;;;3.09;100.0
39295;BME280;52361;52.100;5.248;2023-03-03T04:52:43;102503.0;;;3.24;100.0
39295;BME280;52361;52.100;5.248;2023-03-03T04:55:55;102502.0;;;3.12;100.0
39295;BME280;52361;52.100;5.248;2023-03-03T04:57:31;102503.0;;;3.11;100.0
39295;BME280;52361;52.100;5.248;2023-03-03T04:59:06;102508.0;;;3.32;100.0
39295;BME280;52361;52.100;5.248;2023-03-03T05:02:19;102505.0;;;3.4;100.0
39295;BME280;52361;52.100;5.248;2023-03-03T05:03:55;102505.0;;;3.51;100.0
39295;BME280;52361;52.100;5.248;2023-03-03T05:05:31;102507.0;;;3.52;100.0
39295;BME280;52361;52.100;5.248;2023-03-03T05:07:07;102509.99999999999;;;3.44;100.0
39295;BME280;52361;52.100;5.248;2023-03-03T05:10:20;102503.0;;;3.42;100.0
39295;BME280;52361;52.100;5.248;2023-03-03T05:11:55;102499.0;;;3.55;100.0
39295;BME280;52361;52.100;5.248;2023-03-03T05:13:31;102497.0;;;3.54;100.0
39295;BME280;52361;52.100;5.248;2023-03-03T05:16:47;102496.0;;;3.43;100.0
39295;BME280;52361;52.100;5.248;2023-03-03T05:18:24;102494.0;;;3.48;100.0
39295;BME280;52361;52.100;5.248;2023-03-03T05:20:01;102504.0;;;3.41;100.0
39295;BME280;52361;52.100;5.248;2023-03-03T05:23:15;102501.0;;;3.51;100.0
39295;BME280;52361;52.100;5.248;2023-03-03T05:24:52;102497.0;;;3.56;100.0
39295;BME280;52361;52.100;5.248;2023-03-03T05:26:28;102502.0;;;3.64;100.0
39295;BME280;52361;52.100;5.248;2023-03-03T05:28:04;102497.0;;;3.58;100.0
39295;BME280;52361;52.100;5.248;2023-03-03T05:31:16;102498.0;;;3.51;100.0
39295;BME280;52361;52.100;5.248;2023-03-03T05:32:52;102493.0;;;3.59;100.0
39295;BME280;52361;52.100;5.248;2023-03-03T05:34:28;102498.0;;;3.59;100.0
39295;BME280;52361;52.100;5.248;2023-03-03T05:37:42;102492.0;;;3.68;100.0
39295;BME280;52361;52.100;5.248;2023-03-03T05:39:18;102493.0;;;3.64;100.0
39295;BME280;52361;52.100;5.248;2023-03-03T05:40:54;102494.0;;;3.74;100.0
39295;BME280;52361;52.100;5.248;2023-03-03T05:44:07;102497.0;;;3.72;100.0
39295;BME280;52361;52.100;5.248;2023-03-03T05:45:43;102498.0;;;3.57;100.0
39295;BME280;52361;52.100;5.248;2023-03-03T05:47:19;102500.0;;;3.55;100.0
39295;BME280;52361;52.100;5.248;2023-03-03T05:48:55;102505.0;;;3.59;100.0
39295;BME280;52361;52.100;5.248;2023-03-03T05:52:08;102500.0;;;3.67;100.0
39295;BME280;52361;52.100;5.248;2023-03-03T05:53:44;102501.0;;;3.53;100.0
39295;BME280;52361;52.100;5.248;2023-03-03T05:55:20;102505.0;;;3.54;100.0
39295;BME280;52361;52.100;5.248;2023-03-03T05:58:32;102503.0;;;3.7;100.0
39295;BME280;52361;52.100;5.248;2023-03-03T06:00:10;102498.0;;;3.74;100.0
39295;BME280;52361;52.100;5.248;2023-03-03T06:01:47;102502.0;;;3.81;100.0
39295;BME280;52361;52.100;5.248;2023-03-03T06:04:59;102507.0;;;3.69;100.0
39295;BME280;52361;52.100;5.248;2023-03-03T06:06:35;102503.0;;;3.71;100.0
39295;BME280;52361;52.100;5.248;2023-03-03T06:08:11;102503.0;;;3.69;100.0
39295;BME280;52361;52.100;5.248;2023-03-03T06:09:47;102505.0;;;3.72;100.0
39295;BME280;52361;52.100;5.248;2023-03-03T06:12:59;102506.0;;;3.8;100.0
39295;BME280;52361;52.100;5.248;2023-03-03T06:14:35;102509.99999999999;;;3.83;100.0
39295;BME280;52361;52.100;5.248;2023-03-03T06:16:12;102511.99999999999;;;3.82;100.0
39295;BME280;52361;52.100;5.248;2023-03-03T06:19:24;102515.00000000001;;;3.95;100.0
39295;BME280;52361;52.100;5.248;2023-03-03T06:21:01;102517.0;;;3.73;100.0
39295;BME280;52361;52.100;5.248;2023-03-03T06:22:37;102520.0;;;3.77;100.0
39295;BME280;52361;52.100;5.248;2023-03-03T06:25:49;102523.0;;;3.82;100.0
39295;BME280;52361;52.100;5.248;2023-03-03T06:27:25;102520.0;;;3.74;100.0
39295;BME280;52361;52.100;5.248;2023-03-03T06:29:02;102529.0;;;3.58;100.0
39295;BME280;52361;52.100;5.248;2023-03-03T06:32:15;102525.0;;;3.68;100.0
39295;BME280;52361;52.100;5.248;2023-03-03T06:33:51;102530.0;;;3.89;100.0
39295;BME280;52361;52.100;5.248;2023-03-03T06:35:28;102522.0;;;3.95;100.0
39295;BME280;52361;52.100;5.248;2023-03-03T06:37:04;102526.0;;;3.71;100.0
39295;BME280;52361;52.100;5.248;2023-03-03T06:40:18;102524.0;;;3.82;100.0
39295;BME280;52361;52.100;5.248;2023-03-03T06:41:54;102526.0;;;3.83;100.0
39295;BME280;52361;52.100;5.248;2023-03-03T06:43:30;102532.0;;;4.03;100.0
39295;BME280;52361;52.100;5.248;2023-03-03T06:46:43;102527.0;;;3.98;100.0
39295;BME280;52361;52.100;5.248;2023-03-03T06:48:19;102528.0;;;4.1;100.0
39295;BME280;52361;52.100;5.248;2023-03-03T06:49:55;102533.99999999999;;;4.18;100.0
39295;BME280;52361;52.100;5.248;2023-03-03T06:53:12;102539.00000000001;;;4.1;100.0
39295;BME280;52361;52.100;5.248;2023-03-03T06:54:52;102542.0;;;4.13;100.0
39295;BME280;52361;52.100;5.248;2023-03-03T06:56:33;102547.0;;;4.12;100.0
39295;BME280;52361;52.100;5.248;2023-03-03T06:58:13;102552.0;;;3.94;100.0
39295;BME280;52361;52.100;5.248;2023-03-03T07:01:34;102549.0;;;4.16;100.0
39295;BME280;52361;52.100;5.248;2023-03-03T07:03:13;102553.0;;;3.91;100.0
39295;BME280;52361;52.100;5.248;2023-03-03T07:04:52;102551.0;;;3.97;100.0
39295;BME280;52361;52.100;5.248;2023-03-03T07:06:31;102551.0;;;4.03;100.0
39295;BME280;52361;52.100;5.248;2023-03-03T07:09:51;102561.99999999999;;;4.16;100.0
39295;BME280;52361;52.100;5.248;2023-03-03T07:11:29;102561.99999999999;;;4.0;100.0
39295;BME280;52361;52.100;5.248;2023-03-03T07:13:16;102561.99999999999;;;4.14;100.0
39295;BME280;52361;52.100;5.248;2023-03-03T07:15:00;102567.0;;;4.29;100.0
39295;BME280;52361;52.100;5.248;2023-03-03T07:16:51;102567.0;;;4.2;100.0
39295;BME280;52361;52.100;5.248;2023-03-03T07:20:18;102573.0;;;4.18;100.0
39295;BME280;52361;52.100;5.248;2023-03-03T07:21:56;102578.0;;;4.22;100.0
39295;BME280;52361;52.100;5.248;2023-03-03T07:23:37;102571.0;;;4.24;100.0
39295;BME280;52361;52.100;5.248;2023-03-03T07:25:20;102575.0;;;4.07;100.0
39295;BME280;52361;52.100;5.248;2023-03-03T07:28:52;102575.0;;;4.2;100.0
39295;BME280;52361;52.100;5.248;2023-03-03T07:30:29;102575.0;;;4.18;100.0
39295;BME280;52361;52.100;5.248;2023-03-03T07:32:16;102578.0;;;4.34;100.0
39295;BME280;52361;52.100;5.248;2023-03-03T07:33:58;102578.0;;;4.33;100.0
39295;BME280;52361;52.100;5.248;2023-03-03T07:35:37;102580.0;;;4.29;100.0
39295;BME280;52361;52.100;5.248;2023-03-03T07:39:25;102576.0;;;4.32;100.0
39295;BME280;52361;52.100;5.248;2023-03-03T07:41:08;102577.0;;;4.22;100.0
39295;BME280;52361;52.100;5.248;2023-03-03T07:42:47;102584.99999999999;;;4.13;100.0
39295;BME280;52361;52.100;5.248;2023-03-03T07:44:28;102586.99999999999;;;4.38;100.0
39295;BME280;52361;52.100;5.248;2023-03-03T07:46:21;102583.99999999999;;;4.3;100.0
39295;BME280;52361;52.100;5.248;2023-03-03T07:49:55;102583.99999999999;;;4.45;100.0
39295;BME280;52361;52.100;5.248;2023-03-03T07:51:37;102594.0;;;4.41;100.0
39295;BME280;52361;52.100;5.248;2023-03-03T07:53:22;102597.0;;;4.43;100.0
39295;BME280;52361;52.100;5.248;2023-03-03T07:55:30;102604.0;;;4.47;100.0
39295;BME280;52361;52.100;5.248;2023-03-03T07:57:17;102606.0;;;4.57;100.0
39295;BME280;52361;52.100;5.248;2023-03-03T07:58:57;102604.0;;;4.41;100.0
39295;BME280;52361;52.100;5.248;2023-03-03T08:03:16;102606.0;;;4.45;100.0
39295;BME280;52361;52.100;5.248;2023-03-03T08:04:54;102609.99999999999;;;4.53;100.0
39295;BME280;52361;52.100;5.248;2023-03-03T08:08:27;102617.0;;;4.37;100.0
39295;BME280;52361;52.100;5.248;2023-03-03T08:10:28;102614.00000000001;;;4.13;100.0
39295;BME280;52361;52.100;5.248;2023-03-03T08:12:36;102618.0;;;4.33;100.0
39295;BME280;52361;52.100;5.248;2023-03-03T08:14:14;102620.0;;;4.43;100.0
39295;BME280;52361;52.100;5.248;2023-03-03T08:15:58;102618.0;;;4.59;100.0
39295;BME280;52361;52.100;5.248;2023-03-03T08:17:38;102620.0;;;4.7;100.0
39295;BME280;52361;52.100;5.248;2023-03-03T08:20:55;102621.0;;;4.67;100.0
39295;BME280;52361;52.100;5.248;2023-03-03T08:22:34;102623.0;;;4.51;100.0
39295;BME280;52361;52.100;5.248;2023-03-03T08:24:10;102624.0;;;4.74;100.0
39295;BME280;52361;52.100;5.248;2023-03-03T08:25:47;102631.0;;;4.8;100.0
39295;BME280;52361;52.100;5.248;2023-03-03T08:29:00;102632.0;;;4.88;100.0
39295;BME280;52361;52.100;5.248;2023-03-03T08:30:36;102638.00000000001;;;4.79;100.0
39295;BME280;52361;52.100;5.248;2023-03-03T08:32:13;102638.00000000001;;;4.86;100.0
39295;BME280;52361;52.100;5.248;2023-03-03T08:35:27;102634.99999999999;;;4.88;100.0
39295;BME280;52361;52.100;5.248;2023-03-03T08:37:03;102634.99999999999;;;4.76;100.0
39295;BME280;52361;52.100;5.248;2023-03-03T08:38:39;102632.0;;;4.97;100.0
39295;BME280;52361;52.100;5.248;2023-03-03T08:41:52;102633.99999999999;;;4.99;100.0
39295;BME280;52361;52.100;5.248;2023-03-03T08:43:29;102633.99999999999;;;5.01;100.0
39295;BME280;52361;52.100;5.248;2023-03-03T08:45:05;102634.99999999999;;;4.91;100.0
39295;BME280;52361;52.100;5.248;2023-03-03T08:46:42;102634.99999999999;;;5.19;100.0
39295;BME280;52361;52.100;5.248;2023-03-03T08:49:56;102636.99999999999;;;5.21;100.0
39295;BME280;52361;52.100;5.248;2023-03-03T08:51:32;102639.00000000001;;;5.27;100.0
39295;BME280;52361;52.100;5.248;2023-03-03T08:53:09;102641.00000000001;;;5.25;100.0
39295;BME280;52361;52.100;5.248;2023-03-03T08:56:22;102639.00000000001;;;5.26;100.0
39295;BME280;52361;52.100;5.248;2023-03-03T08:57:58;102639.00000000001;;;5.26;100.0
39295;BME280;52361;52.100;5.248;2023-03-03T08:59:34;102642.0;;;5.44;100.0
39295;BME280;52361;52.100;5.248;2023-03-03T09:02:46;102644.0;;;5.34;100.0
39295;BME280;52361;52.100;5.248;2023-03-03T09:04:23;102646.0;;;5.46;100.0
39295;BME280;52361;52.100;5.248;2023-03-03T09:05:59;102643.0;;;5.43;100.0
39295;BME280;52361;52.100;5.248;2023-03-03T09:07:35;102649.0;;;5.45;100.0
39295;BME280;52361;52.100;5.248;2023-03-03T09:10:49;102643.0;;;5.58;100.0
39295;BME280;52361;52.100;5.248;2023-03-03T09:12:29;102640.00000000001;;;5.77;100.0
39295;BME280;52361;52.100;5.248;2023-03-03T09:14:09;102642.0;;;5.75;100.0
39295;BME280;52361;52.100;5.248;2023-03-03T09:17:33;102638.00000000001;;;5.87;100.0
39295;BME280;52361;52.100;5.248;2023-03-03T09:19:21;102639.00000000001;;;5.93;100.0
39295;BME280;52361;52.100;5.248;2023-03-03T09:20:59;102638.00000000001;;;6.03;100.0
39295;BME280;52361;52.100;5.248;2023-03-03T09:22:36;102638.00000000001;;;6.1;100.0
39295;BME280;52361;52.100;5.248;2023-03-03T09:26:17;102638.00000000001;;;6.06;100.0
39295;BME280;52361;52.100;5.248;2023-03-03T09:28:17;102634.99999999999;;;6.12;100.0
39295;BME280;52361;52.100;5.248;2023-03-03T09:30:00;102640.00000000001;;;6.18;100.0
39295;BME280;52361;52.100;5.248;2023-03-03T09:31:40;102641.00000000001;;;6.12;100.0
39295;BME280;52361;52.100;5.248;2023-03-03T09:33:22;102641.00000000001;;;6.27;100.0
39295;BME280;52361;52.100;5.248;2023-03-03T09:35:26;102636.99999999999;;;6.39;100.0
39295;BME280;52361;52.100;5.248;2023-03-03T09:37:19;102640.00000000001;;;6.35;100.0
39295;BME280;52361;52.100;5.248;2023-03-03T09:40:49;102644.0;;;6.2;100.0
39295;BME280;52361;52.100;5.248;2023-03-03T09:43:01;102642.0;;;6.32;100.0
39295;BME280;52361;52.100;5.248;2023-03-03T09:44:59;102650.0;;;6.37;100.0
39295;BME280;52361;52.100;5.248;2023-03-03T09:47:54;102649.0;;;6.36;100.0
39295;BME280;52361;52.100;5.248;2023-03-03T09:49:43;102647.0;;;6.26;100.0
39295;BME280;52361;52.100;5.248;2023-03-03T09:54:04;102648.0;;;6.31;100.0
39295;BME280;52361;52.100;5.248;2023-03-03T09:55:58;102653.0;;;6.48;100.0
39295;BME280;52361;52.100;5.248;2023-03-03T09:59:42;102656.0;;;6.58;100.0
39295;BME280;52361;52.100;5.248;2023-03-03T10:01:35;102651.0;;;6.77;100.0
39295;BME280;52361;52.100;5.248;2023-03-03T10:04:10;102651.0;;;6.73;100.0
39295;BME280;52361;52.100;5.248;2023-03-03T10:06:53;102652.0;;;6.97;100.0
39295;BME280;52361;52.100;5.248;2023-03-03T10:08:44;102655.0;;;7.08;100.0
39295;BME280;52361;52.100;5.248;2023-03-03T10:10:43;102656.0;;;7.19;100.0
39295;BME280;52361;52.100;5.248;2023-03-03T10:13:00;102658.99999999999;;;7.42;100.0
39295;BME280;52361;52.100;5.248;2023-03-03T10:15:02;102658.99999999999;;;7.66;100.0
39295;BME280;52361;52.100;5.248;2023-03-03T10:17:20;102657.0;;;7.83;100.0
39295;BME280;52361;52.100;5.248;2023-03-03T10:19:03;102657.0;;;8.08;100.0
39295;BME280;52361;52.100;5.248;2023-03-03T10:22:45;102654.0;;;8.56;100.0
39295;BME280;52361;52.100;5.248;2023-03-03T10:24:27;102651.0;;;8.83;100.0
39295;BME280;52361;52.100;5.248;2023-03-03T10:26:16;102652.0;;;9.22;100.0
39295;BME280;52361;52.100;5.248;2023-03-03T10:28:05;102656.0;;;9.23;98.08
39295;BME280;52361;52.100;5.248;2023-03-03T10:29:59;102648.0;;;9.27;97.55
39295;BME280;52361;52.100;5.248;2023-03-03T10:31:50;102647.0;;;9.06;95.48
39295;BME280;52361;52.100;5.248;2023-03-03T10:33:42;102648.0;;;9.22;95.16
39295;BME280;52361;52.100;5.248;2023-03-03T10:37:16;102651.0;;;8.99;95.45
39295;BME280;52361;52.100;5.248;2023-03-03T10:39:09;102655.0;;;8.88;95.88
39295;BME280;52361;52.100;5.248;2023-03-03T10:41:06;102653.0;;;8.96;97.06
39295;BME280;52361;52.100;5.248;2023-03-03T10:42:59;102654.0;;;9.07;96.15
39295;BME280;52361;52.100;5.248;2023-03-03T10:44:54;102650.0;;;9.44;95.97
39295;BME280;52361;52.100;5.248;2023-03-03T10:46:51;102651.0;;;9.67;93.96
39295;BME280;52361;52.100;5.248;2023-03-03T10:48:42;102649.0;;;10.06;92.68
39295;BME280;52361;52.100;5.248;2023-03-03T10:50:33;102653.0;;;10.3;91.04
39295;BME280;52361;52.100;5.248;2023-03-03T10:58:21;102650.0;;;10.68;85.52
39295;BME280;52361;52.100;5.248;2023-03-03T11:00:20;102653.0;;;10.51;83.89
39295;BME280;52361;52.100;5.248;2023-03-03T11:02:02;102657.0;;;10.53;83.81
39295;BME280;52361;52.100;5.248;2023-03-03T11:04:24;102649.0;;;10.72;84.05
39295;BME280;52361;52.100;5.248;2023-03-03T11:07:02;102647.0;;;10.82;82.2
39295;BME280;52361;52.100;5.248;2023-03-03T11:10:31;102649.0;;;10.92;82.71
39295;BME280;52361;52.100;5.248;2023-03-03T11:12:31;102651.0;;;11.14;81.55
39295;BME280;52361;52.100;5.248;2023-03-03T11:14:20;102644.0;;;11.35;81.16
39295;BME280;52361;52.100;5.248;2023-03-03T11:16:14;102646.0;;;11.56;78.99
39295;BME280;52361;52.100;5.248;2023-03-03T11:18:09;102642.0;;;11.86;78.19